Search for airport 
image banner adimage banner adimage banner ad
image banner ad

IA79 - Palo Alto County Hospital

Located in Emmetsburg, United States

ICAO - IA79, IATA -

Data provided by Airmate  

General information

Coordinates: N43°7'14" W94°41'33"
Elevation is 1210 feet MSL.
Magnetic variation is 03° East
View others Airports in Iowa

Operational data

Special qualification required
Current time UTC:
Current local time:
Weather at : KEST - Estherville Muni ( 32 km )
METAR: KEST 150852Z AUTO 33005KT 10SM CLR 11/08 A3013 RMK AO2 SLP198 T01110078 51006
View NOTAMs / SUP AIP / TFR affecting this airport [VIEW]
Communications frequencies: [VIEW]

Runways:

Airport contact information

Address: Emmetsburg United States

Satellite view of IA79